sensor_id;sensor_type;location;lat;lon;timestamp;pressure;altitude;pressure_sealevel;temperature;humidity
36192;BME280;22233;42.708;23.360;2023-03-03T00:01:10;95472.06;;;5.82;72.18
36192;BME280;22233;42.708;23.360;2023-03-03T00:03:36;95467.94;;;5.95;72.21
36192;BME280;22233;42.708;23.360;2023-03-03T00:06:03;95485.31;;;6.13;71.84
36192;BME280;22233;42.708;23.360;2023-03-03T00:08:29;95474.75;;;5.82;72.61
36192;BME280;22233;42.708;23.360;2023-03-03T00:10:57;95460.63;;;5.95;72.33
36192;BME280;22233;42.708;23.360;2023-03-03T00:13:24;95467.63;;;6.31;71.66
36192;BME280;22233;42.708;23.360;2023-03-03T00:15:51;95471.94;;;6.32;71.41
36192;BME280;22233;42.708;23.360;2023-03-03T00:18:30;95464.16;;;6.25;71.19
36192;BME280;22233;42.708;23.360;2023-03-03T00:20:59;95461.81;;;6.18;71.36
36192;BME280;22233;42.708;23.360;2023-03-03T00:26:03;95461.97;;;6.27;70.83
36192;BME280;22233;42.708;23.360;2023-03-03T00:28:46;95472.25;;;6.25;71.53
36192;BME280;22233;42.708;23.360;2023-03-03T00:31:28;95467.81;;;6.39;71.36
36192;BME280;22233;42.708;23.360;2023-03-03T00:33:56;95465.09;;;6.39;71.37
36192;BME280;22233;42.708;23.360;2023-03-03T00:36:36;95450.13;;;6.28;71.80
36192;BME280;22233;42.708;23.360;2023-03-03T00:39:30;95457.25;;;6.43;71.07
36192;BME280;22233;42.708;23.360;2023-03-03T00:41:58;95451.34;;;6.12;71.31
36192;BME280;22233;42.708;23.360;2023-03-03T00:49:53;95429.25;;;6.10;72.14
36192;BME280;22233;42.708;23.360;2023-03-03T00:52:19;95434.13;;;6.08;72.33
36192;BME280;22233;42.708;23.360;2023-03-03T00:54:45;95423.94;;;5.99;72.78
36192;BME280;22233;42.708;23.360;2023-03-03T00:57:11;95426.47;;;6.20;72.36
36192;BME280;22233;42.708;23.360;2023-03-03T00:59:39;95433.22;;;6.17;72.44
36192;BME280;22233;42.708;23.360;2023-03-03T01:02:05;95424.81;;;6.24;72.18
36192;BME280;22233;42.708;23.360;2023-03-03T01:04:31;95427.16;;;6.31;72.42
36192;BME280;22233;42.708;23.360;2023-03-03T01:06:56;95416.25;;;6.41;71.47
36192;BME280;22233;42.708;23.360;2023-03-03T01:09:22;95404.28;;;6.23;72.10
36192;BME280;22233;42.708;23.360;2023-03-03T01:11:48;95400.84;;;6.17;71.87
36192;BME280;22233;42.708;23.360;2023-03-03T01:14:14;95417.78;;;6.23;72.23
36192;BME280;22233;42.708;23.360;2023-03-03T01:16:39;95397.44;;;6.36;71.31
36192;BME280;22233;42.708;23.360;2023-03-03T01:19:06;95404.97;;;6.10;72.25
36192;BME280;22233;42.708;23.360;2023-03-03T01:21:32;95407.53;;;5.91;73.01
36192;BME280;22233;42.708;23.360;2023-03-03T01:23:57;95401.84;;;5.97;72.71
36192;BME280;22233;42.708;23.360;2023-03-03T01:26:23;95381.66;;;5.95;71.66
36192;BME280;22233;42.708;23.360;2023-03-03T01:28:48;95397.53;;;5.91;72.92
36192;BME280;22233;42.708;23.360;2023-03-03T01:31:14;95402.88;;;6.02;72.75
36192;BME280;22233;42.708;23.360;2023-03-03T01:33:39;95392.59;;;6.04;72.43
36192;BME280;22233;42.708;23.360;2023-03-03T01:36:05;95401.34;;;6.19;71.76
36192;BME280;22233;42.708;23.360;2023-03-03T01:38:34;95412.66;;;5.92;72.88
36192;BME280;22233;42.708;23.360;2023-03-03T01:41:00;95385.66;;;5.97;72.82
36192;BME280;22233;42.708;23.360;2023-03-03T01:43:29;95401.44;;;6.38;71.36
36192;BME280;22233;42.708;23.360;2023-03-03T01:48:41;95404.28;;;5.94;72.68
36192;BME280;22233;42.708;23.360;2023-03-03T01:51:17;95402.38;;;5.94;72.98
36192;BME280;22233;42.708;23.360;2023-03-03T01:54:02;95396.03;;;6.14;72.16
36192;BME280;22233;42.708;23.360;2023-03-03T01:56:28;95393.16;;;6.30;71.42
36192;BME280;22233;42.708;23.360;2023-03-03T01:59:05;95384.91;;;6.21;71.49
36192;BME280;22233;42.708;23.360;2023-03-03T02:01:32;95394.78;;;6.31;71.54
36192;BME280;22233;42.708;23.360;2023-03-03T02:03:58;95388.34;;;6.27;71.36
36192;BME280;22233;42.708;23.360;2023-03-03T02:06:30;95397.88;;;6.19;71.73
36192;BME280;22233;42.708;23.360;2023-03-03T02:09:01;95375.59;;;6.08;71.67
36192;BME280;22233;42.708;23.360;2023-03-03T02:11:29;95378.16;;;5.89;72.06
36192;BME280;22233;42.708;23.360;2023-03-03T02:13:55;95379.53;;;5.87;71.78
36192;BME280;22233;42.708;23.360;2023-03-03T02:16:21;95387.88;;;6.19;71.51
36192;BME280;22233;42.708;23.360;2023-03-03T02:18:46;95381.41;;;6.20;71.08
36192;BME280;22233;42.708;23.360;2023-03-03T02:21:18;95380.53;;;6.25;70.77
36192;BME280;22233;42.708;23.360;2023-03-03T02:24:00;95398.34;;;6.26;70.71
36192;BME280;22233;42.708;23.360;2023-03-03T02:26:30;95382.47;;;6.19;70.95
36192;BME280;22233;42.708;23.360;2023-03-03T02:28:56;95388.31;;;6.03;71.58
36192;BME280;22233;42.708;23.360;2023-03-03T02:31:24;95385.97;;;5.91;71.56
36192;BME280;22233;42.708;23.360;2023-03-03T02:33:51;95382.75;;;5.59;72.74
36192;BME280;22233;42.708;23.360;2023-03-03T02:36:21;95392.16;;;5.96;71.76
36192;BME280;22233;42.708;23.360;2023-03-03T02:39:39;95395.25;;;6.14;71.56
36192;BME280;22233;42.708;23.360;2023-03-03T02:42:20;95386.75;;;5.91;71.90
36192;BME280;22233;42.708;23.360;2023-03-03T02:44:47;95391.13;;;5.87;72.20
36192;BME280;22233;42.708;23.360;2023-03-03T02:47:13;95386.94;;;6.05;71.58
36192;BME280;22233;42.708;23.360;2023-03-03T02:49:38;95387.69;;;6.11;71.42
36192;BME280;22233;42.708;23.360;2023-03-03T02:52:06;95392.56;;;6.09;71.06
36192;BME280;22233;42.708;23.360;2023-03-03T02:54:34;95382.81;;;6.13;71.06
36192;BME280;22233;42.708;23.360;2023-03-03T02:57:01;95389.63;;;6.05;71.21
36192;BME280;22233;42.708;23.360;2023-03-03T02:59:27;95383.56;;;5.89;71.71
36192;BME280;22233;42.708;23.360;2023-03-03T03:01:52;95381.38;;;5.91;71.75
36192;BME280;22233;42.708;23.360;2023-03-03T03:04:21;95385.78;;;6.11;71.33
36192;BME280;22233;42.708;23.360;2023-03-03T03:06:47;95389.13;;;6.03;71.29
36192;BME280;22233;42.708;23.360;2023-03-03T03:09:14;95382.81;;;6.13;71.15
36192;BME280;22233;42.708;23.360;2023-03-03T03:11:39;95387.94;;;6.14;71.67
36192;BME280;22233;42.708;23.360;2023-03-03T03:14:07;95384.09;;;6.20;71.85
36192;BME280;22233;42.708;23.360;2023-03-03T03:16:32;95376.63;;;6.12;71.81
36192;BME280;22233;42.708;23.360;2023-03-03T03:18:59;95366.28;;;5.90;71.71
36192;BME280;22233;42.708;23.360;2023-03-03T03:21:25;95385.66;;;5.97;71.79
36192;BME280;22233;42.708;23.360;2023-03-03T03:23:50;95380.88;;;6.18;71.61
36192;BME280;22233;42.708;23.360;2023-03-03T03:26:16;95358.13;;;6.00;72.13
36192;BME280;22233;42.708;23.360;2023-03-03T03:28:41;95379.56;;;6.16;71.57
36192;BME280;22233;42.708;23.360;2023-03-03T03:31:08;95370.63;;;6.20;71.08
36192;BME280;22233;42.708;23.360;2023-03-03T03:33:34;95377.59;;;6.22;71.38
36192;BME280;22233;42.708;23.360;2023-03-03T03:36:00;95375.97;;;5.91;72.34
36192;BME280;22233;42.708;23.360;2023-03-03T03:38:26;95355.91;;;6.08;71.79
36192;BME280;22233;42.708;23.360;2023-03-03T03:40:52;95364.59;;;6.29;71.25
36192;BME280;22233;42.708;23.360;2023-03-03T03:43:18;95351.78;;;6.15;71.04
36192;BME280;22233;42.708;23.360;2023-03-03T03:45:44;95338.25;;;6.20;70.61
36192;BME280;22233;42.708;23.360;2023-03-03T03:48:10;95350.63;;;5.92;72.39
36192;BME280;22233;42.708;23.360;2023-03-03T03:50:36;95363.03;;;6.23;71.67
36192;BME280;22233;42.708;23.360;2023-03-03T03:53:03;95355.22;;;6.21;71.75
36192;BME280;22233;42.708;23.360;2023-03-03T03:55:29;95362.75;;;6.24;71.70
36192;BME280;22233;42.708;23.360;2023-03-03T03:57:55;95351.72;;;6.20;71.20
36192;BME280;22233;42.708;23.360;2023-03-03T04:00:20;95358.28;;;6.14;71.88
36192;BME280;22233;42.708;23.360;2023-03-03T04:02:46;95352.06;;;5.55;73.93
36192;BME280;22233;42.708;23.360;2023-03-03T04:05:11;95351.75;;;5.57;74.73
36192;BME280;22233;42.708;23.360;2023-03-03T04:07:37;95350.97;;;5.56;74.60
36192;BME280;22233;42.708;23.360;2023-03-03T04:10:03;95358.13;;;6.00;74.23
36192;BME280;22233;42.708;23.360;2023-03-03T04:12:29;95353.81;;;5.99;73.92
36192;BME280;22233;42.708;23.360;2023-03-03T04:14:55;95330.88;;;5.73;74.04
36192;BME280;22233;42.708;23.360;2023-03-03T04:17:21;95346.09;;;5.88;74.37
36192;BME280;22233;42.708;23.360;2023-03-03T04:19:51;95340.69;;;5.58;75.41
36192;BME280;22233;42.708;23.360;2023-03-03T04:22:17;95343.84;;;6.00;74.17
36192;BME280;22233;42.708;23.360;2023-03-03T04:24:42;95345.06;;;6.13;74.17
36192;BME280;22233;42.708;23.360;2023-03-03T04:27:08;95343.28;;;5.74;74.73
36192;BME280;22233;42.708;23.360;2023-03-03T04:29:34;95366.16;;;5.76;75.24
36192;BME280;22233;42.708;23.360;2023-03-03T04:31:59;95345.38;;;5.77;75.18
36192;BME280;22233;42.708;23.360;2023-03-03T04:34:25;95341.75;;;5.92;75.10
36192;BME280;22233;42.708;23.360;2023-03-03T04:36:51;95337.50;;;6.15;74.14
36192;BME280;22233;42.708;23.360;2023-03-03T04:39:16;95351.13;;;5.70;75.50
36192;BME280;22233;42.708;23.360;2023-03-03T04:41:42;95346.84;;;5.98;75.24
36192;BME280;22233;42.708;23.360;2023-03-03T04:44:07;95342.22;;;5.70;75.78
36192;BME280;22233;42.708;23.360;2023-03-03T04:46:32;95345.59;;;5.86;75.17
36192;BME280;22233;42.708;23.360;2023-03-03T04:48:58;95343.59;;;5.33;76.88
36192;BME280;22233;42.708;23.360;2023-03-03T04:51:24;95352.13;;;5.79;76.26
36192;BME280;22233;42.708;23.360;2023-03-03T04:53:49;95355.63;;;5.80;75.38
36192;BME280;22233;42.708;23.360;2023-03-03T04:56:14;95334.38;;;5.39;76.58
36192;BME280;22233;42.708;23.360;2023-03-03T04:58:40;95351.66;;;5.67;76.45
36192;BME280;22233;42.708;23.360;2023-03-03T05:01:05;95341.72;;;5.68;76.31
36192;BME280;22233;42.708;23.360;2023-03-03T05:03:31;95352.28;;;5.59;75.86
36192;BME280;22233;42.708;23.360;2023-03-03T05:05:56;95358.72;;;5.92;75.53
36192;BME280;22233;42.708;23.360;2023-03-03T05:08:22;95352.91;;;5.80;75.91
36192;BME280;22233;42.708;23.360;2023-03-03T05:10:52;95361.53;;;5.82;76.09
36192;BME280;22233;42.708;23.360;2023-03-03T05:13:18;95358.22;;;5.90;75.22
36192;BME280;22233;42.708;23.360;2023-03-03T05:15:51;95349.59;;;5.88;75.94
36192;BME280;22233;42.708;23.360;2023-03-03T05:18:18;95351.50;;;5.88;76.21
36192;BME280;22233;42.708;23.360;2023-03-03T05:20:44;95345.44;;;5.72;75.96
36192;BME280;22233;42.708;23.360;2023-03-03T05:23:09;95361.38;;;5.97;75.84
36192;BME280;22233;42.708;23.360;2023-03-03T05:25:35;95351.72;;;5.91;74.82
36192;BME280;22233;42.708;23.360;2023-03-03T05:28:00;95370.44;;;5.77;76.17
36192;BME280;22233;42.708;23.360;2023-03-03T05:30:26;95363.13;;;5.54;76.69
36192;BME280;22233;42.708;23.360;2023-03-03T05:32:51;95355.22;;;5.63;76.64
36192;BME280;22233;42.708;23.360;2023-03-03T05:35:16;95363.59;;;5.90;76.29
36192;BME280;22233;42.708;23.360;2023-03-03T05:37:42;95361.63;;;5.72;76.50
36192;BME280;22233;42.708;23.360;2023-03-03T05:40:12;95370.53;;;6.02;75.92
36192;BME280;22233;42.708;23.360;2023-03-03T05:42:38;95371.91;;;5.99;76.00
36192;BME280;22233;42.708;23.360;2023-03-03T05:45:04;95356.03;;;5.92;76.23
36192;BME280;22233;42.708;23.360;2023-03-03T05:47:29;95361.25;;;6.13;75.99
36192;BME280;22233;42.708;23.360;2023-03-03T05:49:55;95363.56;;;6.25;74.72
36192;BME280;22233;42.708;23.360;2023-03-03T05:52:20;95367.16;;;6.15;75.13
36192;BME280;22233;42.708;23.360;2023-03-03T05:54:46;95371.13;;;6.23;74.68
36192;BME280;22233;42.708;23.360;2023-03-03T05:57:11;95376.25;;;6.24;74.79
36192;BME280;22233;42.708;23.360;2023-03-03T05:59:36;95372.00;;;6.42;74.67
36192;BME280;22233;42.708;23.360;2023-03-03T06:02:02;95364.53;;;6.34;75.19
36192;BME280;22233;42.708;23.360;2023-03-03T06:04:27;95374.34;;;6.49;74.72
36192;BME280;22233;42.708;23.360;2023-03-03T06:06:52;95363.19;;;6.07;75.87
36192;BME280;22233;42.708;23.360;2023-03-03T06:09:18;95372.56;;;6.39;74.88
36192;BME280;22233;42.708;23.360;2023-03-03T06:11:44;95364.13;;;6.46;74.25
36192;BME280;22233;42.708;23.360;2023-03-03T06:14:10;95368.88;;;6.54;74.01
36192;BME280;22233;42.708;23.360;2023-03-03T06:16:35;95373.88;;;6.66;74.12
36192;BME280;22233;42.708;23.360;2023-03-03T06:19:00;95360.09;;;6.67;73.86
36192;BME280;22233;42.708;23.360;2023-03-03T06:21:26;95371.66;;;6.49;74.76
36192;BME280;22233;42.708;23.360;2023-03-03T06:23:51;95369.22;;;6.23;75.16
36192;BME280;22233;42.708;23.360;2023-03-03T06:26:17;95385.03;;;6.59;74.63
36192;BME280;22233;42.708;23.360;2023-03-03T06:28:42;95383.88;;;6.65;74.04
36192;BME280;22233;42.708;23.360;2023-03-03T06:31:07;95384.50;;;6.81;73.71
36192;BME280;22233;42.708;23.360;2023-03-03T06:33:33;95371.28;;;6.79;74.00
36192;BME280;22233;42.708;23.360;2023-03-03T06:35:58;95371.72;;;6.87;73.45
36192;BME280;22233;42.708;23.360;2023-03-03T06:38:23;95369.38;;;6.80;73.52
36192;BME280;22233;42.708;23.360;2023-03-03T06:40:49;95380.84;;;6.91;73.03
36192;BME280;22233;42.708;23.360;2023-03-03T06:43:14;95389.00;;;6.86;73.00
36192;BME280;22233;42.708;23.360;2023-03-03T06:45:40;95380.84;;;6.91;73.52
36192;BME280;22233;42.708;23.360;2023-03-03T06:48:05;95384.44;;;6.86;73.27
36192;BME280;22233;42.708;23.360;2023-03-03T06:50:31;95389.38;;;6.79;73.45
36192;BME280;22233;42.708;23.360;2023-03-03T06:53:13;95366.19;;;6.54;73.54
36192;BME280;22233;42.708;23.360;2023-03-03T06:55:40;95388.38;;;6.94;72.81
36192;BME280;22233;42.708;23.360;2023-03-03T07:00:43;95391.56;;;6.77;74.56
36192;BME280;22233;42.708;23.360;2023-03-03T07:03:23;95393.94;;;7.03;73.73
36192;BME280;22233;42.708;23.360;2023-03-03T07:05:48;95396.72;;;7.16;73.15
36192;BME280;22233;42.708;23.360;2023-03-03T07:08:18;95370.44;;;7.03;72.35
36192;BME280;22233;42.708;23.360;2023-03-03T07:10:44;95383.97;;;6.79;73.25
36192;BME280;22233;42.708;23.360;2023-03-03T07:13:19;95390.91;;;6.66;74.40
36192;BME280;22233;42.708;23.360;2023-03-03T07:15:45;95387.44;;;6.60;74.26
36192;BME280;22233;42.708;23.360;2023-03-03T07:18:36;95382.09;;;6.55;74.58
36192;BME280;22233;42.708;23.360;2023-03-03T07:21:22;95385.28;;;6.82;75.05
36192;BME280;22233;42.708;23.360;2023-03-03T07:23:51;95374.22;;;6.59;74.37
36192;BME280;22233;42.708;23.360;2023-03-03T07:26:23;95393.63;;;6.61;73.82
36192;BME280;22233;42.708;23.360;2023-03-03T07:28:55;95388.47;;;6.40;76.26
36192;BME280;22233;42.708;23.360;2023-03-03T07:31:33;95398.25;;;6.36;75.50
36192;BME280;22233;42.708;23.360;2023-03-03T07:34:00;95383.88;;;6.65;74.32
36192;BME280;22233;42.708;23.360;2023-03-03T07:36:30;95383.00;;;6.70;74.67
36192;BME280;22233;42.708;23.360;2023-03-03T07:39:00;95396.56;;;6.89;74.44
36192;BME280;22233;42.708;23.360;2023-03-03T07:41:28;95388.22;;;6.85;74.69
36192;BME280;22233;42.708;23.360;2023-03-03T07:43:58;95387.19;;;6.81;73.13
36192;BME280;22233;42.708;23.360;2023-03-03T07:51:43;95393.94;;;7.03;73.34
36192;BME280;22233;42.708;23.360;2023-03-03T07:54:28;95384.75;;;7.23;72.62
36192;BME280;22233;42.708;23.360;2023-03-03T07:56:58;95373.94;;;7.23;72.90
36192;BME280;22233;42.708;23.360;2023-03-03T07:59:26;95367.00;;;6.97;72.72
36192;BME280;22233;42.708;23.360;2023-03-03T08:01:53;95373.44;;;7.20;72.26
36192;BME280;22233;42.708;23.360;2023-03-03T08:04:23;95370.94;;;7.24;71.41
36192;BME280;22233;42.708;23.360;2023-03-03T08:06:54;95379.34;;;7.23;72.09
36192;BME280;22233;42.708;23.360;2023-03-03T08:09:40;95380.22;;;7.37;71.17
36192;BME280;22233;42.708;23.360;2023-03-03T08:14:37;95377.44;;;7.42;71.03
36192;BME280;22233;42.708;23.360;2023-03-03T08:17:18;95381.53;;;7.39;70.80
36192;BME280;22233;42.708;23.360;2023-03-03T08:19:44;95366.03;;;7.26;71.12
36192;BME280;22233;42.708;23.360;2023-03-03T08:22:16;95361.06;;;6.95;72.73
36192;BME280;22233;42.708;23.360;2023-03-03T08:24:42;95370.94;;;7.24;72.96
36192;BME280;22233;42.708;23.360;2023-03-03T08:27:07;95353.63;;;7.25;71.78
36192;BME280;22233;42.708;23.360;2023-03-03T08:29:33;95348.69;;;6.94;72.03
36192;BME280;22233;42.708;23.360;2023-03-03T08:31:58;95355.97;;;6.94;71.93
36192;BME280;22233;42.708;23.360;2023-03-03T08:34:24;95366.34;;;7.06;71.70
36192;BME280;22233;42.708;23.360;2023-03-03T08:36:49;95350.06;;;7.30;71.74
36192;BME280;22233;42.708;23.360;2023-03-03T08:39:15;95353.16;;;6.80;72.96
36192;BME280;22233;42.708;23.360;2023-03-03T08:41:40;95351.16;;;7.10;73.31
36192;BME280;22233;42.708;23.360;2023-03-03T08:44:08;95360.28;;;7.33;71.87
36192;BME280;22233;42.708;23.360;2023-03-03T08:46:34;95361.38;;;7.51;71.55
36192;BME280;22233;42.708;23.360;2023-03-03T08:48:59;95364.53;;;7.39;72.82
36192;BME280;22233;42.708;23.360;2023-03-03T08:51:25;95365.19;;;7.31;70.62
36192;BME280;22233;42.708;23.360;2023-03-03T08:53:50;95353.78;;;7.15;70.72
36192;BME280;22233;42.708;23.360;2023-03-03T08:56:16;95375.91;;;7.17;71.11
36192;BME280;22233;42.708;23.360;2023-03-03T08:58:41;95364.81;;;7.18;71.58
36192;BME280;22233;42.708;23.360;2023-03-03T09:01:13;95357.66;;;7.09;71.64
36192;BME280;22233;42.708;23.360;2023-03-03T09:03:40;95367.03;;;7.16;72.41
36192;BME280;22233;42.708;23.360;2023-03-03T09:06:05;95364.22;;;7.22;72.72
36192;BME280;22233;42.708;23.360;2023-03-03T09:08:31;95339.25;;;7.30;71.52
36192;BME280;22233;42.708;23.360;2023-03-03T09:10:56;95369.03;;;7.44;71.61
36192;BME280;22233;42.708;23.360;2023-03-03T09:13:22;95346.91;;;7.42;71.74
36192;BME280;22233;42.708;23.360;2023-03-03T09:15:48;95362.06;;;7.75;71.16
36192;BME280;22233;42.708;23.360;2023-03-03T09:18:28;95365.59;;;7.57;72.08
36192;BME280;22233;42.708;23.360;2023-03-03T09:20:55;95362.78;;;7.81;70.62
36192;BME280;22233;42.708;23.360;2023-03-03T09:23:27;95342.00;;;7.76;71.64
36192;BME280;22233;42.708;23.360;2023-03-03T09:25:54;95361.88;;;7.86;70.07
36192;BME280;22233;42.708;23.360;2023-03-03T09:28:30;95364.31;;;8.01;69.57
36192;BME280;22233;42.708;23.360;2023-03-03T09:30:58;95353.69;;;8.05;68.72
36192;BME280;22233;42.708;23.360;2023-03-03T09:33:40;95355.88;;;8.03;68.90
36192;BME280;22233;42.708;23.360;2023-03-03T09:36:27;95347.63;;;7.80;69.56
36192;BME280;22233;42.708;23.360;2023-03-03T09:38:54;95356.72;;;8.03;69.45
36192;BME280;22233;42.708;23.360;2023-03-03T09:47:07;95356.00;;;7.97;69.48
36192;BME280;22233;42.708;23.360;2023-03-03T10:06:14;95351.03;;;8.32;66.86
36192;BME280;22233;42.708;23.360;2023-03-03T10:14:38;95345.16;;;8.58;67.35
36192;BME280;22233;42.708;23.360;2023-03-03T10:17:29;95343.44;;;8.62;64.82
36192;BME280;22233;42.708;23.360;2023-03-03T10:20:06;95343.34;;;8.53;66.74
36192;BME280;22233;42.708;23.360;2023-03-03T10:22:58;95339.44;;;8.73;67.09
36192;BME280;22233;42.708;23.360;2023-03-03T10:25:41;95334.41;;;8.80;66.88
36192;BME280;22233;42.708;23.360;2023-03-03T10:34:18;95316.34;;;8.90;65.27
36192;BME280;22233;42.708;23.360;2023-03-03T10:37:21;95331.16;;;8.92;65.77
36192;BME280;22233;42.708;23.360;2023-03-03T10:39:59;95326.44;;;8.98;64.68
36192;BME280;22233;42.708;23.360;2023-03-03T10:59:35;95319.91;;;8.99;64.05
36192;BME280;22233;42.708;23.360;2023-03-03T11:07:56;95309.91;;;8.99;64.81
36192;BME280;22233;42.708;23.360;2023-03-03T11:13:22;95308.78;;;9.00;64.42
36192;BME280;22233;42.708;23.360;2023-03-03T11:21:25;95297.72;;;8.97;64.99
36192;BME280;22233;42.708;23.360;2023-03-03T11:31:56;95276.56;;;8.07;67.68
36192;BME280;22233;42.708;23.360;2023-03-03T11:37:28;95295.38;;;7.98;68.68
36192;BME280;22233;42.708;23.360;2023-03-03T11:40:06;95289.72;;;8.42;68.38
36192;BME280;22233;42.708;23.360;2023-03-03T11:42:49;95291.56;;;8.69;67.47
36192;BME280;22233;42.708;23.360;2023-03-03T11:45:19;95281.41;;;8.88;67.93
36192;BME280;22233;42.708;23.360;2023-03-03T11:47:55;95285.19;;;9.01;66.75
36192;BME280;22233;42.708;23.360;2023-03-03T11:50:42;95275.88;;;8.43;66.62
36192;BME280;22233;42.708;23.360;2023-03-03T11:53:28;95280.72;;;8.83;66.12
36192;BME280;22233;42.708;23.360;2023-03-03T11:56:00;95285.53;;;8.86;66.96
36192;BME280;22233;42.708;23.360;2023-03-03T11:58:45;95260.91;;;8.73;65.84
36192;BME280;22233;42.708;23.360;2023-03-03T12:01:26;95278.75;;;8.60;66.19
36192;BME280;22233;42.708;23.360;2023-03-03T12:04:08;95273.75;;;8.26;67.53
36192;BME280;22233;42.708;23.360;2023-03-03T12:11:53;95271.34;;;7.97;71.09
36192;BME280;22233;42.708;23.360;2023-03-03T12:19:38;95277.38;;;7.47;72.83
36192;BME280;22233;42.708;23.360;2023-03-03T12:22:20;95287.19;;;8.04;70.74
36192;BME280;22233;42.708;23.360;2023-03-03T12:35:57;95280.31;;;7.65;72.26
36192;BME280;22233;42.708;23.360;2023-03-03T12:38:29;95285.59;;;7.56;73.21
36192;BME280;22233;42.708;23.360;2023-03-03T12:41:43;95286.38;;;7.43;72.52
36192;BME280;22233;42.708;23.360;2023-03-03T12:44:21;95282.88;;;7.23;75.76
36192;BME280;22233;42.708;23.360;2023-03-03T12:47:06;95283.81;;;7.32;73.80
36192;BME280;22233;42.708;23.360;2023-03-03T12:49:45;95277.97;;;6.92;74.84
36192;BME280;22233;42.708;23.360;2023-03-03T12:52:29;95284.81;;;6.85;75.71
36192;BME280;22233;42.708;23.360;2023-03-03T12:55:15;95269.03;;;6.92;76.62
36192;BME280;22233;42.708;23.360;2023-03-03T13:05:50;95285.78;;;6.32;77.12
36192;BME280;22233;42.708;23.360;2023-03-03T13:16:33;95270.78;;;6.45;77.61
36192;BME280;22233;42.708;23.360;2023-03-03T13:19:06;95277.34;;;6.38;78.70
36192;BME280;22233;42.708;23.360;2023-03-03T13:21:54;95279.66;;;6.26;79.14
36192;BME280;22233;42.708;23.360;2023-03-03T13:24:25;95272.13;;;6.85;78.15
36192;BME280;22233;42.708;23.360;2023-03-03T13:27:02;95257.88;;;6.98;77.25
36192;BME280;22233;42.708;23.360;2023-03-03T13:29:43;95266.41;;;7.06;75.92
36192;BME280;22233;42.708;23.360;2023-03-03T13:32:16;95267.31;;;7.34;77.09
36192;BME280;22233;42.708;23.360;2023-03-03T13:35:01;95270.44;;;7.41;75.71
36192;BME280;22233;42.708;23.360;2023-03-03T13:40:45;95269.78;;;7.63;74.29
36192;BME280;22233;42.708;23.360;2023-03-03T13:42:56;95262.25;;;7.60;74.44
36192;BME280;22233;42.708;23.360;2023-03-03T13:45:31;95259.50;;;7.79;75.40
36192;BME280;22233;42.708;23.360;2023-03-03T13:56:40;95262.91;;;7.71;74.69
36192;BME280;22233;42.708;23.360;2023-03-03T14:02:19;95257.00;;;7.69;74.66
36192;BME280;22233;42.708;23.360;2023-03-03T14:05:29;95271.34;;;7.83;74.80
36192;BME280;22233;42.708;23.360;2023-03-03T14:08:05;95251.41;;;7.79;73.08
36192;BME280;22233;42.708;23.360;2023-03-03T14:10:43;95260.69;;;7.59;74.76
36192;BME280;22233;42.708;23.360;2023-03-03T14:13:16;95258.13;;;7.16;75.77
36192;BME280;22233;42.708;23.360;2023-03-03T14:15:50;95275.38;;;7.53;75.18
36192;BME280;22233;42.708;23.360;2023-03-03T14:18:40;95264.19;;;7.59;75.87
36192;BME280;22233;42.708;23.360;2023-03-03T14:21:15;95245.88;;;7.84;74.74
36192;BME280;22233;42.708;23.360;2023-03-03T14:24:18;95260.91;;;8.04;73.56
36192;BME280;22233;42.708;23.360;2023-03-03T14:26:51;95259.69;;;7.83;74.22
36192;BME280;22233;42.708;23.360;2023-03-03T14:29:22;95254.28;;;7.96;74.19
36192;BME280;22233;42.708;23.360;2023-03-03T14:32:19;95244.28;;;7.69;74.19
36192;BME280;22233;42.708;23.360;2023-03-03T14:34:40;95237.72;;;7.56;73.85
36192;BME280;22233;42.708;23.360;2023-03-03T14:37:27;95260.50;;;7.83;74.90
36192;BME280;22233;42.708;23.360;2023-03-03T14:40:09;95238.38;;;7.95;72.76
36192;BME280;22233;42.708;23.360;2023-03-03T14:45:28;95246.56;;;7.76;74.62
36192;BME280;22233;42.708;23.360;2023-03-03T14:47:55;95246.06;;;7.74;74.13
36192;BME280;22233;42.708;23.360;2023-03-03T14:50:36;95233.56;;;7.92;73.64
36192;BME280;22233;42.708;23.360;2023-03-03T14:53:09;95259.88;;;7.72;73.49
36192;BME280;22233;42.708;23.360;2023-03-03T14:55:38;95244.84;;;7.66;74.04
36192;BME280;22233;42.708;23.360;2023-03-03T14:58:24;95250.09;;;7.90;73.97
36192;BME280;22233;42.708;23.360;2023-03-03T15:01:06;95243.88;;;8.04;73.92
36192;BME280;22233;42.708;23.360;2023-03-03T15:03:34;95247.31;;;8.23;72.65
36192;BME280;22233;42.708;23.360;2023-03-03T15:06:10;95233.34;;;8.30;73.18
36192;BME280;22233;42.708;23.360;2023-03-03T15:08:41;95244.88;;;8.22;73.05
36192;BME280;22233;42.708;23.360;2023-03-03T15:11:20;95251.19;;;8.45;72.87
36192;BME280;22233;42.708;23.360;2023-03-03T15:13:49;95246.19;;;8.52;71.72
36192;BME280;22233;42.708;23.360;2023-03-03T15:16:22;95244.69;;;8.18;71.76
36192;BME280;22233;42.708;23.360;2023-03-03T15:19:13;95247.31;;;8.23;71.79
36192;BME280;22233;42.708;23.360;2023-03-03T15:24:47;95236.47;;;7.95;72.31
36192;BME280;22233;42.708;23.360;2023-03-03T15:27:18;95237.19;;;8.15;71.65
36192;BME280;22233;42.708;23.360;2023-03-03T15:29:57;95252.00;;;8.31;71.53
36192;BME280;22233;42.708;23.360;2023-03-03T15:32:48;95234.47;;;8.43;71.30
36192;BME280;22233;42.708;23.360;2023-03-03T15:38:33;95255.31;;;8.42;71.81
36192;BME280;22233;42.708;23.360;2023-03-03T15:41:18;95240.91;;;8.19;71.25
36192;BME280;22233;42.708;23.360;2023-03-03T15:43:52;95260.00;;;8.36;70.54
36192;BME280;22233;42.708;23.360;2023-03-03T15:46:30;95236.84;;;8.30;71.00
36192;BME280;22233;42.708;23.360;2023-03-03T15:49:10;95243.06;;;8.31;71.45
36192;BME280;22233;42.708;23.360;2023-03-03T15:54:12;95260.09;;;8.59;70.46
36192;BME280;22233;42.708;23.360;2023-03-03T15:56:49;95253.28;;;7.92;72.66
36192;BME280;22233;42.708;23.360;2023-03-03T15:59:31;95252.88;;;8.27;71.86
36192;BME280;22233;42.708;23.360;2023-03-03T16:04:38;95270.25;;;8.67;70.99